Time;durP1;ratioP1;P1;durP2;ratioP2;P2;SDS_P1;SDS_P2;PMS_P1;PMS_P2;Temp;Humidity;BMP_temperature;BMP_pressure;BME280_temperature;BME280_humidity;BME280_pressure;Samples;Min_cycle;Max_cycle;Signal;HPM_P1;HPM_P2
2022/05/22 00:00:19;;;;;;;5.75;1.45;;;;;;;11.71;70.40;100962.91;5068893;28;20133;-70
2022/05/22 00:02:47;;;;;;;8.10;1.30;;;;;;;11.69;70.81;100964.81;5050044;28;20062;-69
2022/05/22 00:05:17;;;;;;;6.25;1.60;;;;;;;11.69;70.80;100962.16;5052447;28;20058;-70
2022/05/22 00:07:45;;;;;;;4.43;1.33;;;;;;;11.68;71.13;100958.69;5081072;28;20066;-70
2022/05/22 00:10:12;;;;;;;7.75;1.92;;;;;;;11.70;71.15;100969.13;5071572;28;20515;-71
2022/05/22 00:12:41;;;;;;;5.78;1.35;;;;;;;11.66;71.07;100965.81;5061332;28;20084;-70
2022/05/22 00:15:10;;;;;;;8.07;1.60;;;;;;;11.61;71.38;100968.72;5076025;28;20037;-69
2022/05/22 00:17:37;;;;;;;9.85;1.77;;;;;;;11.58;71.88;100966.28;5057344;28;20061;-71
2022/05/22 00:20:05;;;;;;;6.78;1.27;;;;;;;11.57;72.00;100967.22;5058981;28;20541;-70
2022/05/22 00:22:33;;;;;;;6.68;1.75;;;;;;;11.57;71.95;100963.72;5067354;28;20051;-70
2022/05/22 00:25:00;;;;;;;5.60;1.60;;;;;;;11.57;72.14;100956.69;5073648;28;20044;-70
2022/05/22 00:27:27;;;;;;;7.57;1.88;;;;;;;11.54;72.58;100962.13;5074712;28;20156;-71
2022/05/22 00:29:55;;;;;;;13.63;2.30;;;;;;;11.50;73.06;100962.38;5057557;28;20056;-70
2022/05/22 00:32:22;;;;;;;4.35;1.02;;;;;;;11.47;73.31;100962.56;5069499;28;20048;-71
2022/05/22 00:34:50;;;;;;;6.10;1.20;;;;;;;11.40;73.53;100954.16;5077115;28;20643;-70
2022/05/22 00:37:17;;;;;;;6.68;2.78;;;;;;;11.36;73.94;100945.56;5059719;28;20064;-70
2022/05/22 00:39:44;;;;;;;4.97;1.33;;;;;;;11.35;74.14;100945.66;5056524;28;20414;-71
2022/05/22 00:42:18;;;;;;;7.93;1.35;;;;;;;11.34;74.22;100943.94;5054824;28;20063;-70
2022/05/22 00:44:46;;;;;;;6.47;1.27;;;;;;;11.32;74.13;100935.28;5046278;28;20070;-70
2022/05/22 00:47:14;;;;;;;7.60;1.65;;;;;;;11.27;74.04;100943.47;5048714;28;20082;-71
2022/05/22 00:49:43;;;;;;;9.10;1.50;;;;;;;11.30;74.30;100939.78;5068321;28;20050;-72
2022/05/22 00:52:15;;;;;;;8.25;2.03;;;;;;;11.30;74.54;100942.41;5043743;28;20052;-70
2022/05/22 00:55:02;;;;;;;2.50;0.98;;;;;;;11.25;74.54;100944.47;5050574;28;20071;-71
2022/05/22 00:57:40;;;;;;;8.55;1.50;;;;;;;11.22;74.54;100942.03;5070391;28;20501;-70
2022/05/22 01:00:13;;;;;;;8.82;1.42;;;;;;;11.20;75.18;100944.72;5028921;28;20067;-69
2022/05/22 01:05:28;;;;;;;6.18;1.58;;;;;;;11.11;75.53;100943.47;5054044;28;20063;-70
2022/05/22 01:07:57;;;;;;;11.23;1.55;;;;;;;11.05;76.08;100943.81;5075797;28;20113;-69
2022/05/22 01:10:33;;;;;;;5.90;1.40;;;;;;;10.94;77.00;100945.31;5067303;28;20569;-72
2022/05/22 01:13:00;;;;;;;;;;;;;;;10.89;77.27;100942.94;5063733;28;20126;-70
2022/05/22 01:15:27;;;;;;;3.58;1.10;;;;;;;10.88;77.40;100941.25;5039676;28;19926;-70
2022/05/22 01:17:55;;;;;;;5.53;1.50;;;;;;;10.84;77.96;100952.88;5051401;28;20044;-70
2022/05/22 01:20:22;;;;;;;7.93;1.20;;;;;;;10.77;78.17;100949.75;5060858;28;20108;-70
2022/05/22 01:22:50;;;;;;;3.80;1.52;;;;;;;10.75;78.76;100948.97;5071297;28;20044;-70
2022/05/22 01:25:17;;;;;;;10.35;1.85;;;;;;;10.71;78.72;100950.06;5079265;28;20052;-70
2022/05/22 01:27:44;;;;;;;6.32;1.52;;;;;;;10.69;79.06;100953.75;5064089;28;20070;-70
2022/05/22 01:30:18;;;;;;;8.27;1.70;;;;;;;10.64;79.61;100951.34;5058024;28;20096;-70
2022/05/22 01:32:47;;;;;;;8.18;1.65;;;;;;;10.61;80.18;100949.72;5085601;28;20056;-70
2022/05/22 01:35:18;;;;;;;8.18;2.63;;;;;;;10.60;80.54;100944.53;5064257;28;20054;-70
2022/05/22 01:37:46;;;;;;;6.93;1.85;;;;;;;10.58;80.49;100942.00;5082952;28;20066;-69
2022/05/22 01:40:14;;;;;;;8.23;1.80;;;;;;;10.54;80.76;100945.75;5043866;28;20070;-71
2022/05/22 01:42:42;;;;;;;11.93;1.70;;;;;;;10.55;81.12;100943.94;5069955;28;20056;-70
2022/05/22 01:45:12;;;;;;;11.63;2.75;;;;;;;10.53;81.20;100944.00;5067283;28;20601;-70
2022/05/22 01:47:40;;;;;;;5.25;1.35;;;;;;;10.53;81.25;100948.44;5045531;28;20122;-71
2022/05/22 01:50:08;;;;;;;10.90;1.88;;;;;;;10.55;81.54;100957.13;5069443;28;20096;-70
2022/05/22 01:52:36;;;;;;;12.70;2.25;;;;;;;10.56;81.99;100950.91;5036308;28;20060;-70
2022/05/22 01:55:04;;;;;;;8.05;2.55;;;;;;;10.54;82.08;100945.75;5065971;28;20041;-69
2022/05/22 01:57:32;;;;;;;9.05;1.55;;;;;;;10.54;82.27;100940.47;5049216;28;20048;-70
2022/05/22 02:00:00;;;;;;;6.72;1.70;;;;;;;10.54;82.31;100942.25;5049212;28;20053;-69
2022/05/22 02:02:28;;;;;;;7.75;1.70;;;;;;;10.57;82.57;100939.44;5058188;28;20070;-70
2022/05/22 02:04:55;;;;;;;6.18;1.77;;;;;;;10.56;82.63;100946.50;5061473;28;20060;-69
2022/05/22 02:10:10;;;;;;;10.23;1.88;;;;;;;10.57;83.12;100945.56;5045119;28;20048;-71
2022/05/22 02:12:37;;;;;;;4.60;1.63;;;;;;;10.57;83.35;100942.06;5061603;28;20055;-71
2022/05/22 02:15:05;;;;;;;12.30;1.80;;;;;;;10.56;83.42;100938.59;5047036;28;20142;-71
2022/05/22 02:17:33;;;;;;;10.77;1.80;;;;;;;10.56;83.66;100935.13;5076262;28;20070;-70
2022/05/22 02:20:01;;;;;;;7.68;1.58;;;;;;;10.56;83.82;100935.13;5057395;28;20078;-69
2022/05/22 02:22:28;;;;;;;14.07;2.10;;;;;;;10.57;84.01;100934.19;5054513;28;20128;-69
2022/05/22 02:24:55;;;;;;;7.82;1.88;;;;;;;10.57;83.84;100935.03;5075672;28;20056;-70
2022/05/22 02:27:23;;;;;;;10.02;2.13;;;;;;;10.57;84.02;100942.91;5052827;28;20053;-71
2022/05/22 02:29:50;;;;;;;7.60;1.77;;;;;;;10.56;84.36;100938.59;5050684;28;20129;-71
2022/05/22 02:32:18;;;;;;;9.68;2.28;;;;;;;10.55;84.51;100936.91;5072829;28;20049;-71
2022/05/22 02:34:45;;;;;;;8.25;2.45;;;;;;;10.57;84.20;100937.66;5036382;28;20496;-71
2022/05/22 02:37:13;;;;;;;11.20;1.67;;;;;;;10.58;84.32;100930.59;5050707;28;20056;-70
2022/05/22 02:39:40;;;;;;;5.18;1.70;;;;;;;10.58;84.18;100930.59;5065536;28;20505;-71
2022/05/22 02:42:08;;;;;;;9.40;2.25;;;;;;;10.59;84.74;100922.63;5066025;28;20071;-70
2022/05/22 02:44:36;;;;;;;6.47;1.50;;;;;;;10.57;84.78;100924.50;5071309;28;20053;-71
2022/05/22 02:47:03;;;;;;;8.90;1.17;;;;;;;10.55;85.11;100929.00;5071928;28;20052;-71
2022/05/22 02:49:33;;;;;;;8.82;2.00;;;;;;;10.54;85.09;100927.31;5064196;28;20058;-70
2022/05/22 02:52:00;;;;;;;12.75;2.22;;;;;;;10.50;85.53;100925.78;5071677;28;20068;-70
2022/05/22 02:54:27;;;;;;;10.10;2.03;;;;;;;10.48;85.96;100914.47;5060783;28;20060;-70
2022/05/22 02:56:55;;;;;;;8.02;1.65;;;;;;;10.44;86.35;100927.88;5052468;28;20063;-69
2022/05/22 02:59:41;;;;;;;9.13;2.35;;;;;;;10.42;86.31;100927.13;5072166;28;20055;-70
2022/05/22 03:02:08;;;;;;;8.18;1.65;;;;;;;10.38;86.98;100929.06;5074634;28;20044;-70
2022/05/22 03:04:36;;;;;;;8.23;1.90;;;;;;;10.37;87.36;100930.00;5049678;28;20675;-70
2022/05/22 03:07:03;;;;;;;18.23;1.95;;;;;;;10.37;87.27;100927.34;5037242;28;20066;-70
2022/05/22 03:09:30;;;;;;;8.88;1.85;;;;;;;10.32;87.84;100927.59;5064272;28;20057;-70
2022/05/22 03:12:04;;;;;;;12.13;2.45;;;;;;;10.28;88.29;100933.97;5060349;28;20058;-71
2022/05/22 03:14:32;;;;;;;9.57;1.98;;;;;;;10.26;88.41;100927.06;5046709;28;20063;-70
2022/05/22 03:16:59;;;;;;;8.30;1.77;;;;;;;10.25;88.55;100926.22;5064031;28;20029;-71
2022/05/22 03:19:27;;;;;;;13.40;1.80;;;;;;;10.23;89.07;100927.22;5067930;28;20400;-70
2022/05/22 03:21:55;;;;;;;6.55;1.88;;;;;;;10.25;89.12;100928.00;5068465;28;20048;-68
2022/05/22 03:24:22;;;;;;;9.70;2.90;;;;;;;10.27;89.26;100929.63;5074305;28;20048;-70
2022/05/22 03:26:49;;;;;;;10.05;1.80;;;;;;;10.29;89.52;100933.03;5067332;28;20339;-70
2022/05/22 03:29:17;;;;;;;8.07;2.00;;;;;;;10.27;89.51;100934.91;5063436;28;20048;-70
2022/05/22 03:31:44;;;;;;;15.80;2.00;;;;;;;10.31;90.23;100940.81;5052663;28;20446;-70
2022/05/22 03:34:12;;;;;;;9.77;2.20;;;;;;;10.33;89.91;100939.81;5049948;28;20052;-71
2022/05/22 03:36:40;;;;;;;5.35;1.73;;;;;;;10.38;90.03;100934.31;5053716;28;20470;-71
2022/05/22 03:39:08;;;;;;;11.25;2.00;;;;;;;10.41;90.54;100944.69;5053059;28;20056;-70
2022/05/22 03:41:36;;;;;;;7.20;2.10;;;;;;;10.45;90.16;100934.84;5063237;28;20055;-70
2022/05/22 03:44:05;;;;;;;12.57;2.75;;;;;;;10.49;90.33;100931.97;5068109;28;20052;-71
2022/05/22 03:46:33;;;;;;;11.88;2.55;;;;;;;10.54;90.34;100937.84;5068282;28;20037;-69
2022/05/22 03:49:01;;;;;;;11.75;1.80;;;;;;;10.57;90.00;100931.53;5066061;28;20097;-71
2022/05/22 03:51:28;;;;;;;14.73;2.33;;;;;;;10.54;90.26;100932.56;5049680;28;21100;-71
2022/05/22 03:53:55;;;;;;;10.82;2.40;;;;;;;10.57;90.40;100931.53;5065941;28;20052;-71
2022/05/22 03:56:23;;;;;;;8.18;1.92;;;;;;;10.57;90.62;100937.66;5068478;28;20452;-70
2022/05/22 03:58:50;;;;;;;14.57;2.13;;;;;;;10.57;90.61;100934.19;5066218;28;20056;-70
2022/05/22 04:01:18;;;;;;;11.98;2.30;;;;;;;10.56;90.64;100929.84;5054096;28;20050;-71
2022/05/22 04:03:45;;;;;;;12.30;1.98;;;;;;;10.53;91.13;100925.59;5067498;28;20194;-70
2022/05/22 04:06:13;;;;;;;13.20;1.85;;;;;;;10.56;91.17;100925.44;5059859;28;21720;-70
2022/05/22 04:08:40;;;;;;;11.90;3.15;;;;;;;10.57;91.44;100935.03;5051435;28;21139;-70
2022/05/22 04:11:14;;;;;;;10.68;2.15;;;;;;;10.55;91.40;100931.63;5073607;28;20052;-70
2022/05/22 04:13:42;;;;;;;12.55;2.70;;;;;;;10.56;91.36;100937.75;5057515;28;20049;-70
2022/05/22 04:16:10;;;;;;;8.57;2.42;;;;;;;10.56;91.44;100932.47;5051852;28;20066;-70
2022/05/22 04:18:37;;;;;;;14.63;2.47;;;;;;;10.56;91.27;100938.59;5073332;28;20094;-71
2022/05/22 04:21:05;;;;;;;10.20;2.33;;;;;;;10.57;91.33;100932.38;5059488;28;20070;-70
2022/05/22 04:26:18;;;;;;;;;;;;;;;10.73;91.17;100934.22;5076344;28;20517;-71
2022/05/22 04:28:46;;;;;;;9.02;2.28;;;;;;;10.77;90.64;100938.38;5055478;28;19931;-70
2022/05/22 04:31:13;;;;;;;13.23;2.42;;;;;;;10.79;90.49;100942.59;5068623;28;20069;-70
2022/05/22 04:33:41;;;;;;;10.20;2.30;;;;;;;10.85;90.30;100939.66;5065113;28;20066;-70
2022/05/22 04:36:08;;;;;;;12.63;2.53;;;;;;;10.89;89.90;100930.63;5067607;28;20033;-70
2022/05/22 04:38:35;;;;;;;10.68;2.55;;;;;;;10.98;89.87;100939.81;5065302;28;20079;-72
2022/05/22 04:41:03;;;;;;;10.18;2.20;;;;;;;11.04;89.34;100943.91;5071387;28;20049;-71
2022/05/22 04:43:31;;;;;;;8.75;2.47;;;;;;;11.10;88.73;100949.66;5074569;28;20048;-70
2022/05/22 04:45:59;;;;;;;14.38;3.05;;;;;;;11.11;88.69;100956.63;5060749;28;20049;-69
2022/05/22 04:48:28;;;;;;;10.07;2.20;;;;;;;11.20;88.18;100955.25;5052582;28;20545;-70
2022/05/22 04:50:56;;;;;;;10.65;2.03;;;;;;;11.27;87.81;100946.09;5074537;28;20056;-70
2022/05/22 04:53:26;;;;;;;11.13;2.35;;;;;;;11.32;87.69;100953.75;5059009;28;20441;-71
2022/05/22 04:55:54;;;;;;;15.70;2.78;;;;;;;11.25;88.28;100957.66;5073690;28;20370;-70
2022/05/22 04:58:22;;;;;;;13.13;2.58;;;;;;;11.22;88.26;100960.47;5065703;28;20036;-71
2022/05/22 05:01:17;;;;;;;11.05;2.70;;;;;;;11.16;88.54;100959.84;5068969;28;20048;-71
2022/05/22 05:03:44;;;;;;;12.52;2.47;;;;;;;11.16;89.13;100965.13;5030855;28;20047;-70
2022/05/22 05:06:12;;;;;;;13.98;2.63;;;;;;;11.16;88.78;100962.50;5072292;28;20541;-70
2022/05/22 05:08:39;;;;;;;13.73;2.85;;;;;;;11.20;89.28;100965.81;5053017;28;20050;-71
2022/05/22 05:11:09;;;;;;;15.63;2.88;;;;;;;11.25;89.09;100961.13;5074979;28;20074;-70
2022/05/22 05:13:37;;;;;;;13.45;2.30;;;;;;;11.32;88.45;100965.13;5067627;28;20053;-70
2022/05/22 05:16:09;;;;;;;12.63;2.38;;;;;;;11.46;88.42;100968.75;5070469;28;20546;-71
2022/05/22 05:18:38;;;;;;;10.45;1.90;;;;;;;11.61;87.53;100966.09;5047582;28;20406;-69
2022/05/22 05:21:08;;;;;;;14.77;3.40;;;;;;;11.53;87.48;100965.69;5033891;28;20369;-70
2022/05/22 05:23:37;;;;;;;9.63;2.58;;;;;;;11.61;87.48;100963.44;5036850;28;20237;-71
2022/05/22 05:26:05;;;;;;;9.82;2.40;;;;;;;11.57;87.41;100963.72;5048859;28;20044;-70
2022/05/22 05:28:33;;;;;;;13.80;3.35;;;;;;;11.62;87.70;100962.53;5038760;28;20062;-70
2022/05/22 05:31:00;;;;;;;7.40;2.90;;;;;;;11.60;87.42;100964.38;5068416;28;20056;-71
2022/05/22 05:33:30;;;;;;;9.38;2.83;;;;;;;11.61;87.13;100958.16;5054930;28;20055;-72
2022/05/22 05:35:58;;;;;;;11.73;2.58;;;;;;;11.64;86.98;100958.00;5047686;28;20380;-70
2022/05/22 05:38:25;;;;;;;11.40;3.85;;;;;;;11.64;87.40;100959.78;5068475;28;20056;-71
2022/05/22 05:41:12;;;;;;;10.18;2.58;;;;;;;11.61;87.73;100955.53;5072103;28;20089;-71
2022/05/22 05:43:40;;;;;;;13.13;3.00;;;;;;;11.72;87.28;100964.63;5054811;28;20045;-71
2022/05/22 05:46:10;;;;;;;11.48;2.58;;;;;;;11.75;87.04;100960.03;5069272;28;20095;-69
2022/05/22 05:48:41;;;;;;;14.35;2.72;;;;;;;11.86;86.62;100959.44;5046981;28;20056;-72
2022/05/22 05:51:08;;;;;;;16.60;2.90;;;;;;;11.98;85.87;100974.53;5055551;28;20510;-70
2022/05/22 05:53:36;;;;;;;8.30;2.20;;;;;;;11.96;85.72;100972.91;5044040;28;20064;-70
2022/05/22 05:56:04;;;;;;;13.13;2.83;;;;;;;11.96;85.55;100971.13;5066562;28;20625;-69
2022/05/22 05:58:42;;;;;;;10.15;2.60;;;;;;;12.02;85.66;100973.41;5054393;28;20045;-70
2022/05/22 06:01:10;;;;;;;11.50;3.20;;;;;;;12.10;85.31;100972.94;5056797;28;20049;-69
2022/05/22 06:03:38;;;;;;;11.15;2.55;;;;;;;12.09;85.33;100974.75;5032539;28;20511;-69
2022/05/22 06:06:07;;;;;;;10.70;2.53;;;;;;;12.22;84.96;100977.50;5034114;28;20065;-69
2022/05/22 06:08:35;;;;;;;13.38;2.75;;;;;;;12.29;84.02;100968.28;5051527;28;20060;-70
2022/05/22 06:11:03;;;;;;;12.18;2.35;;;;;;;12.36;84.17;100966.94;5038760;28;20145;-70
2022/05/22 06:13:30;;;;;;;14.70;3.38;;;;;;;12.33;83.92;100966.28;5074234;28;20608;-71
2022/05/22 06:15:58;;;;;;;11.65;2.65;;;;;;;12.54;82.99;100972.91;5075033;28;20876;-69
2022/05/22 06:18:26;;;;;;;13.57;2.67;;;;;;;12.78;82.31;100973.16;5074280;28;20062;-70
2022/05/22 06:20:53;;;;;;;17.50;3.08;;;;;;;12.79;81.27;100971.34;5055305;28;20497;-71
2022/05/22 06:23:20;;;;;;;10.27;2.38;;;;;;;12.83;81.41;100965.81;5058431;28;20044;-70
2022/05/22 06:25:48;;;;;;;8.68;2.90;;;;;;;12.74;81.45;100965.50;5074925;28;20078;-71
2022/05/22 06:28:16;;;;;;;9.52;2.33;;;;;;;12.78;81.90;100967.03;5058316;28;20051;-70
2022/05/22 06:30:43;;;;;;;12.93;3.08;;;;;;;12.93;81.06;100966.94;5060181;28;20225;-71
2022/05/22 06:33:12;;;;;;;10.85;2.03;;;;;;;12.94;80.90;100962.47;5052280;28;20044;-70
2022/05/22 06:35:41;;;;;;;9.35;2.20;;;;;;;12.98;80.38;100964.00;5074603;28;20059;-70
2022/05/22 06:39:49;;;;;;;11.30;2.70;;;;;;;13.09;79.98;100958.00;5035556;28;20545;-69
2022/05/22 06:40:57;;;;;;;11.15;2.35;;;;;;;13.07;80.43;100966.03;5065229;28;20049;-70
2022/05/22 06:43:24;;;;;;;12.63;2.35;;;;;;;13.29;80.41;100954.13;5048796;28;20090;-69
2022/05/22 06:45:52;;;;;;;8.15;2.47;;;;;;;13.53;78.93;100957.81;5043211;28;20044;-69
2022/05/22 06:48:19;;;;;;;12.73;2.58;;;;;;;13.72;77.44;100961.88;5063760;28;20090;-69
2022/05/22 06:50:47;;;;;;;9.38;2.20;;;;;;;14.02;76.99;100959.81;5068277;28;20517;-70
2022/05/22 06:53:14;;;;;;;13.57;2.72;;;;;;;14.10;75.55;100965.44;5058615;28;20049;-70
2022/05/22 06:55:42;;;;;;;13.65;2.47;;;;;;;14.11;74.81;100959.19;5069247;28;20051;-69
2022/05/22 06:58:09;;;;;;;14.35;2.28;;;;;;;14.07;75.02;100951.56;5064503;28;20075;-69
2022/05/22 07:00:36;;;;;;;10.75;2.08;;;;;;;14.01;74.77;100960.78;5056661;28;20094;-71
2022/05/22 07:03:04;;;;;;;10.57;2.42;;;;;;;14.08;75.11;100961.19;5047484;28;20056;-70
2022/05/22 07:05:31;;;;;;;12.75;2.50;;;;;;;14.17;74.55;100963.19;5070257;28;20048;-70
2022/05/22 07:07:58;;;;;;;12.85;2.55;;;;;;;14.30;74.44;100966.72;5076537;28;20058;-71
2022/05/22 07:13:18;;;;;;;9.85;1.67;;;;;;;14.21;73.79;100958.56;5074828;28;20090;-69
2022/05/22 07:16:03;;;;;;;11.43;2.08;;;;;;;14.16;73.90;100965.00;5052783;28;20056;-70
2022/05/22 07:18:51;;;;;;;8.52;2.13;;;;;;;14.22;73.84;100954.94;5061536;28;20048;-72
2022/05/22 07:21:18;;;;;;;10.95;2.08;;;;;;;14.39;73.71;100946.69;5054373;28;20048;-71
2022/05/22 07:23:46;;;;;;;9.30;2.15;;;;;;;14.51;72.89;100951.16;5056604;28;20390;-70
2022/05/22 07:26:13;;;;;;;4.28;1.23;;;;;;;14.33;71.98;100955.91;5077671;28;20057;-70
2022/05/22 07:28:41;;;;;;;7.47;1.73;;;;;;;14.19;72.33;100953.38;5032167;28;20052;-71
2022/05/22 07:31:16;;;;;;;7.78;1.73;;;;;;;13.97;73.71;100955.78;5059991;28;20056;-70
2022/05/22 07:33:43;;;;;;;12.15;2.45;;;;;;;14.02;73.77;100958.97;5056871;28;20052;-71
2022/05/22 07:36:11;;;;;;;9.90;2.38;;;;;;;14.23;73.51;100952.22;5054961;28;20045;-71
2022/05/22 07:38:38;;;;;;;12.00;2.63;;;;;;;14.33;71.88;100949.78;5074208;28;20443;-70
2022/05/22 07:41:06;;;;;;;8.30;2.28;;;;;;;14.34;72.16;100941.72;5023256;28;20517;-69
2022/05/22 07:43:33;;;;;;;4.80;1.80;;;;;;;14.66;72.07;100943.94;5070083;28;20056;-72
2022/05/22 07:46:01;;;;;;;10.38;1.70;;;;;;;14.74;70.95;100944.22;5062519;28;20062;-69
2022/05/22 07:48:35;;;;;;;7.93;2.33;;;;;;;14.88;69.77;100937.94;5044028;28;20051;-72
2022/05/22 07:51:03;;;;;;;7.50;1.48;;;;;;;15.11;69.29;100938.94;5055864;28;20061;-70
2022/05/22 07:53:31;;;;;;;8.50;1.65;;;;;;;14.98;66.79;100940.78;5050974;28;20053;-71
2022/05/22 07:55:58;;;;;;;7.68;2.42;;;;;;;14.85;67.17;100941.66;5046510;28;20056;-70
2022/05/22 07:58:26;;;;;;;10.15;1.70;;;;;;;14.80;67.01;100940.28;5058049;28;20086;-69
2022/05/22 08:00:55;;;;;;;5.68;1.20;;;;;;;14.75;67.46;100939.78;5050043;28;20048;-71
2022/05/22 08:03:23;;;;;;;6.97;1.48;;;;;;;14.77;68.05;100940.50;5044527;28;20533;-71
2022/05/22 08:05:52;;;;;;;5.10;1.90;;;;;;;14.88;67.66;100944.09;5052897;28;20158;-71
2022/05/22 08:08:19;;;;;;;8.45;1.77;;;;;;;14.98;67.40;100936.31;5056311;28;20053;-68
2022/05/22 08:10:46;;;;;;;6.47;1.65;;;;;;;15.04;66.46;100932.38;5067201;28;20518;-70
2022/05/22 08:13:14;;;;;;;9.48;1.50;;;;;;;15.20;66.85;100928.50;5072939;28;20053;-70
2022/05/22 08:15:42;;;;;;;8.15;1.55;;;;;;;15.26;66.04;100932.50;5056865;28;20525;-71
2022/05/22 08:18:10;;;;;;;8.07;1.50;;;;;;;15.32;65.66;100924.09;5051106;28;20041;-69
2022/05/22 08:20:39;;;;;;;5.85;1.25;;;;;;;15.38;64.76;100913.03;5052715;28;20052;-69
2022/05/22 08:23:10;;;;;;;3.15;1.40;;;;;;;15.50;64.68;100916.56;5062600;28;20052;-70
2022/05/22 08:25:37;;;;;;;7.30;1.52;;;;;;;15.63;64.09;100920.00;5053305;28;20511;-70
2022/05/22 08:28:05;;;;;;;7.22;1.75;;;;;;;15.73;63.98;100911.38;5053744;28;20059;-70
2022/05/22 08:30:33;;;;;;;10.45;1.92;;;;;;;15.94;64.16;100915.06;5058797;28;20051;-70
2022/05/22 08:33:01;;;;;;;8.43;2.25;;;;;;;16.04;63.07;100910.72;5069987;28;20052;-70
2022/05/22 08:35:31;;;;;;;5.30;1.67;;;;;;;16.36;63.38;100918.00;5064662;28;20057;-69
2022/05/22 08:38:00;;;;;;;6.53;2.45;;;;;;;16.59;63.07;100917.00;5038220;28;20057;-70
2022/05/22 08:40:36;;;;;;;8.48;2.63;;;;;;;16.82;61.99;100909.88;5028178;28;20074;-70
2022/05/22 08:43:44;;;;;;;9.88;2.22;;;;;;;16.96;60.27;100920.25;5035715;28;20041;-69
2022/05/22 08:46:20;;;;;;;7.90;3.15;;;;;;;17.09;60.48;100916.59;5035742;28;20059;-69
2022/05/22 08:48:58;;;;;;;8.10;2.10;;;;;;;17.05;59.88;100923.13;5043913;28;20040;-69
2022/05/22 08:51:28;;;;;;;6.93;1.80;;;;;;;17.21;59.71;100924.41;5051714;28;20048;-70
2022/05/22 08:54:02;;;;;;;8.25;1.83;;;;;;;17.48;57.38;100919.63;5064831;28;20065;-70
2022/05/22 08:59:23;;;;;;;6.80;1.75;;;;;;;17.18;56.89;100915.84;5054297;28;20051;-69
2022/05/22 09:01:56;;;;;;;8.82;1.38;;;;;;;16.84;57.89;100915.06;5044823;28;20049;-70
2022/05/22 09:04:38;;;;;;;4.25;1.60;;;;;;;16.76;58.33;100902.41;5045705;28;20048;-71
2022/05/22 09:07:24;;;;;;;6.00;1.45;;;;;;;16.56;57.94;100911.94;5064669;28;20412;-69
2022/05/22 09:10:03;;;;;;;6.88;1.60;;;;;;;16.35;58.29;100913.66;5035928;28;20056;-70
2022/05/22 09:12:48;;;;;;;5.72;1.27;;;;;;;16.11;59.08;100913.72;5057754;28;20049;-70
2022/05/22 09:15:22;;;;;;;6.15;1.58;;;;;;;16.03;59.79;100911.69;5048348;28;20124;-72
2022/05/22 09:17:52;;;;;;;4.72;1.33;;;;;;;16.18;59.82;100901.69;5066088;28;20052;-70
2022/05/22 09:20:24;;;;;;;8.70;1.85;;;;;;;15.93;60.69;100906.22;5051460;28;20036;-71
2022/05/22 09:22:55;;;;;;;6.88;1.35;;;;;;;16.01;60.47;100910.09;5030265;28;20793;-72
2022/05/22 09:25:36;;;;;;;6.00;1.58;;;;;;;15.97;60.86;100906.84;5052519;28;20161;-70
2022/05/22 09:28:36;;;;;;;7.80;1.50;;;;;;;16.33;60.88;100902.28;5065027;28;20406;-70
2022/05/22 09:31:19;;;;;;;8.77;1.75;;;;;;;16.94;58.70;100902.75;5040025;28;20427;-70
2022/05/22 09:34:01;;;;;;;3.75;1.10;;;;;;;17.13;57.18;100910.91;5056609;28;20048;-73
2022/05/22 09:36:47;;;;;;;5.95;1.85;;;;;;;16.98;56.66;100914.81;5025766;28;20071;-71
2022/05/22 09:39:51;;;;;;;7.07;2.13;;;;;;;17.03;56.39;100914.44;5064389;28;20050;-70
2022/05/22 09:42:43;;;;;;;5.57;1.48;;;;;;;16.86;56.76;100916.66;5076431;28;20052;-71
2022/05/22 09:45:49;;;;;;;4.90;1.20;;;;;;;16.96;56.99;100916.75;5051128;28;20063;-71
2022/05/22 09:48:41;;;;;;;7.45;1.27;;;;;;;17.18;55.99;100922.00;5055104;28;20056;-71
2022/05/22 09:51:32;;;;;;;4.28;1.40;;;;;;;17.09;55.90;100928.06;5047769;28;20178;-72
2022/05/22 09:54:06;;;;;;;4.57;1.23;;;;;;;17.29;56.44;100921.13;5067137;28;20059;-70
2022/05/22 09:57:25;;;;;;;4.72;1.33;;;;;;;17.64;55.14;100918.19;5049468;28;20052;-72
2022/05/22 10:00:08;;;;;;;6.60;1.30;;;;;;;17.74;54.04;100915.63;5062763;28;20074;-72
2022/05/22 10:02:58;;;;;;;3.17;0.85;;;;;;;17.76;53.40;100916.34;5049268;28;20079;-73
2022/05/22 10:05:49;;;;;;;5.63;1.40;;;;;;;17.94;54.24;100914.78;5049599;28;20052;-72
2022/05/22 10:08:37;;;;;;;4.53;1.92;;;;;;;18.16;52.69;100927.13;5076713;28;20048;-70
2022/05/22 10:11:34;;;;;;;5.40;1.27;;;;;;;17.97;52.76;100916.34;5071801;28;20044;-70
2022/05/22 10:14:19;;;;;;;5.00;1.25;;;;;;;17.67;53.40;100925.09;5048874;28;20051;-71
2022/05/22 10:17:01;;;;;;;3.97;0.88;;;;;;;17.68;52.94;100916.97;5046468;28;20510;-70
2022/05/22 10:19:50;;;;;;;4.22;1.00;;;;;;;17.67;52.19;100917.94;5068794;28;20101;-70
2022/05/22 10:22:43;;;;;;;5.15;1.30;;;;;;;17.80;52.65;100923.09;5077845;28;20555;-70
2022/05/22 10:25:29;;;;;;;8.45;1.75;;;;;;;18.15;52.02;100924.59;5049304;28;20053;-72
2022/05/22 10:28:03;;;;;;;5.55;1.48;;;;;;;18.39;51.07;100922.47;5026425;28;20072;-72
2022/05/22 10:30:36;;;;;;;5.50;1.13;;;;;;;18.70;49.98;100920.66;5049737;28;20045;-70
2022/05/22 10:33:10;;;;;;;5.88;0.95;;;;;;;18.91;49.93;100917.03;5050338;28;20475;-68
2022/05/22 10:35:44;;;;;;;5.80;1.25;;;;;;;18.86;48.72;100917.44;5046525;28;20044;-69
2022/05/22 10:38:21;;;;;;;4.15;1.33;;;;;;;18.71;48.21;100917.00;5066683;28;20431;-70
2022/05/22 10:43:43;;;;;;;5.70;1.35;;;;;;;18.62;47.34;100920.44;5057720;28;20084;-71
2022/05/22 10:46:11;;;;;;;5.13;1.20;;;;;;;18.57;47.08;100921.84;5031299;28;20071;-71
2022/05/22 10:48:55;;;;;;;4.35;1.05;;;;;;;18.64;47.73;100930.97;5071502;28;20056;-69
2022/05/22 10:51:27;;;;;;;5.82;1.40;;;;;;;18.26;47.88;100924.50;5065659;28;20067;-71
2022/05/22 10:53:57;;;;;;;5.32;1.63;;;;;;;17.77;49.13;100926.03;5065262;28;20072;-70
2022/05/22 10:56:27;;;;;;;5.95;1.20;;;;;;;17.58;50.81;100923.19;5041892;28;20048;-70
2022/05/22 10:59:18;;;;;;;5.07;1.42;;;;;;;17.93;50.23;100930.91;5071968;28;20055;-71
2022/05/22 11:01:57;;;;;;;5.30;1.10;;;;;;;18.25;49.59;100924.63;5054815;28;20058;-70
2022/05/22 11:04:34;;;;;;;4.97;1.30;;;;;;;18.29;49.94;100931.41;5040629;28;20045;-72
2022/05/22 11:07:02;;;;;;;4.78;1.50;;;;;;;18.82;49.33;100920.53;5064965;28;20542;-71
2022/05/22 11:09:40;;;;;;;3.30;0.80;;;;;;;19.05;47.37;100918.47;5053007;28;20093;-70
2022/05/22 11:12:09;;;;;;;4.43;1.10;;;;;;;19.25;46.82;100916.69;5038569;28;20499;-70
2022/05/22 11:14:37;;;;;;;3.20;0.70;;;;;;;19.53;46.44;100906.97;5068521;28;20044;-70
2022/05/22 11:17:15;;;;;;;3.15;1.33;;;;;;;20.16;45.88;100910.84;5047607;28;20135;-71
2022/05/22 11:19:44;;;;;;;5.88;1.10;;;;;;;20.63;43.57;100902.81;5045871;28;20089;-68
2022/05/22 11:22:38;;;;;;;2.88;0.98;;;;;;;20.69;43.54;100909.38;5041551;28;20388;-70
2022/05/22 11:25:27;;;;;;;4.05;1.10;;;;;;;20.66;42.14;100907.00;5046085;28;20118;-71
2022/05/22 11:28:33;;;;;;;1.50;0.70;;;;;;;20.40;44.14;100901.47;5047470;28;20043;-71
2022/05/22 11:31:30;;;;;;;3.70;1.00;;;;;;;20.53;43.67;100909.19;5045272;28;20501;-71
2022/05/22 11:34:02;;;;;;;3.38;1.05;;;;;;;20.53;42.87;100899.31;5040040;28;20063;-70
2022/05/22 11:36:41;;;;;;;4.63;1.25;;;;;;;20.36;42.84;100894.75;5036298;28;20086;-70
2022/05/22 11:39:39;;;;;;;4.28;1.20;;;;;;;20.00;42.78;100902.59;5067076;28;20438;-69
2022/05/22 11:42:12;;;;;;;6.07;1.70;;;;;;;20.49;43.51;100887.25;5075713;28;20059;-69
2022/05/22 11:44:51;;;;;;;4.63;1.58;;;;;;;20.88;41.43;100889.69;5069573;28;20136;-70
2022/05/22 11:47:37;;;;;;;2.15;0.73;;;;;;;20.24;42.10;100894.06;5045984;28;20351;-70
2022/05/22 11:50:26;;;;;;;4.57;1.27;;;;;;;20.37;43.38;100888.41;5045447;28;20048;-71
2022/05/22 11:52:59;;;;;;;7.82;1.30;;;;;;;20.35;43.50;100883.19;5040689;28;20048;-70
2022/05/22 11:55:42;;;;;;;4.13;1.40;;;;;;;20.65;43.17;100889.28;5051651;28;20056;-69
2022/05/22 11:58:20;;;;;;;4.82;1.13;;;;;;;20.79;41.80;100885.25;5061785;28;20049;-70
2022/05/22 12:00:58;;;;;;;4.80;1.05;;;;;;;20.81;41.40;100880.59;5061864;28;20464;-70